Soaring Guidance
Issued by NWS Reno, NV

Current Version | Previous Version | Text Only | Print | Product List | Glossary On
Versions: 1 2 3 4 5 6 7
000
UXUS97 KREV 291359
SRGREV

SOARING FORECAST
NATIONAL WEATHER SERVICE - RENO NV
700 AM PDT MON AUG 29 2016

THIS SOARING FORECAST IS FOR THE EASTERN SIERRA AND WESTERN NEVADA
WITH SPECIFIC INDICES FOR THE GREATER RENO AREA.

THIS FORECAST IS PREPARED DAILY BY 700 AM AND IS NOT UPDATED.

FOR CURRENT FLIGHT CONDITIONS...FORECASTS...AND ADVISORIES...ACCESS
YOUR LOCAL BRIEFING OUTLET OR FLIGHT SERVICE STATION.

*******************************************************************
FORECASTED LOCAL INDICES FOR RENO:        TODAY     YESTERDAY
FORECASTED MAX TEMP AT RENO (DEG F).....     93          92
FORECASTED TRIGGER TEMPERATURE (DEG F)..     80          78
   EXCEEDED YESTERDAY BY 1155 AM PDT
FORECASTED MAXIMUM ALTITUDE (FT MSL)....  17400       15800
FORECASTED SOARING INDEX (FPM)..........   1152         954
FORECASTED K-INDEX.........VALID 18Z....     -5          -4
FORECASTED K-INDEX.........VALID 00Z....     -2           7
FORECASTED LIFTED INDEX....VALID 18Z....     10           9
FORECASTED LIFTED INDEX....VALID 00Z....      7           5

AFTERNOON WINDS ALOFT FORECAST
MSL (FT) WIND/TEMP
9000  2507/+18
10000 2307/+15
12000 2307/+10
14000 2308/+03
16000 2410/-03
18000 2515/-09
24000 2522/-20
30000 2541/-36
34000 2645/-46
39000 2637/-57

SLIDE MOUNTAIN DATA:
     DATE       TIME     TEMP  DEWPT   RH         WIND (MPH)
                        (F)   (F)           | DIR  SPEED GUST
2016-08-29    04:30      51    24     22    | 240   12   21
2016-08-29    04:20      51    24     22    | 239   13   22
2016-08-29    04:00      52    24     22    | 239   13   22
2016-08-29    03:50      52    24     22    | 242   12   19

RENO TAF FORECAST:
KRNO 291126Z 2912/3012 VRB04KT P6SM SKC
     FM291700 VRB04KT P6SM FEW120 SCT200
     FM292200 26011G18KT P6SM FEW120 SCT200
     FM300100 30012G22KT P6SM FEW120 SCT200
     FM300500 VRB04KT P6SM FEW200

CARSON CITY TAF FORECAST:
KCXP 291126Z 2912/3012 VRB03KT P6SM SKC
     FM291700 20006KT P6SM FEW120 SCT200
     FM292200 25010G18KT P6SM FEW120 SCT200
     FM300400 VRB03KT P6SM FEW200

OUTLOOK FOR THE RENO-CARSON CITY-MINDEN AREA:
.TUESDAY...PARTLY CLOUDY IN THE MORNING THEN BECOMING SUNNY.
HIGHS 89 TO 94. LIGHT WINDS BECOMING SOUTHWEST 15 TO 20 MPH WITH
GUSTS UP TO 35 MPH IN THE AFTERNOON.

SUNRISE AND SUNSET
AUGUST 29 2016........SUNRISE   625 AM PDT   SUNSET   734 PM PDT
AUGUST 30 2016........SUNRISE   626 AM PDT   SUNSET   732 PM PDT



USA.gov is the U.S. government's official web portal to all federal, state and local government web resources and services.